createdAt,value
2018-08-23T00:01:27.334Z,14.47
2018-08-23T00:03:59.481Z,13.13
2018-08-23T00:06:29.401Z,13.63
2018-08-23T00:08:59.457Z,15.67
2018-08-23T00:11:32.057Z,13.45
2018-08-23T00:14:01.917Z,14.40
2018-08-23T00:16:47.592Z,14.60
2018-08-23T00:19:17.643Z,17.60
2018-08-23T00:21:48.606Z,16.50
2018-08-23T00:24:19.620Z,16.67
2018-08-23T00:26:52.625Z,16.10
2018-08-23T00:29:27.555Z,15.03
2018-08-23T00:32:00.052Z,17.17
2018-08-23T00:34:31.962Z,15.28
2018-08-23T00:37:02.496Z,14.97
2018-08-23T00:39:32.460Z,16.30
2018-08-23T00:42:06.258Z,15.63
2018-08-23T00:45:07.417Z,13.78
2018-08-23T00:47:37.315Z,12.30
2018-08-23T00:50:07.140Z,13.23
2018-08-23T00:52:46.660Z,12.37
2018-08-23T00:55:21.277Z,12.03
2018-08-23T00:57:53.525Z,12.98
2018-08-23T01:00:25.177Z,13.30
2018-08-23T01:03:02.545Z,13.80
2018-08-23T01:05:38.500Z,13.30
2018-08-23T01:08:09.922Z,13.77
2018-08-23T01:10:41.332Z,13.20
2018-08-23T01:13:11.886Z,13.60
2018-08-23T01:15:44.948Z,13.80
2018-08-23T01:18:18.889Z,12.60
2018-08-23T01:20:50.311Z,12.87
2018-08-23T01:23:20.070Z,14.27
2018-08-23T01:25:57.690Z,13.33
2018-08-23T01:28:34.177Z,12.60
2018-08-23T01:31:24.990Z,15.40
2018-08-23T01:33:57.950Z,15.07
2018-08-23T01:36:32.842Z,16.75
2018-08-23T01:39:08.286Z,17.00
2018-08-23T01:41:37.937Z,16.25
2018-08-23T01:44:08.027Z,17.90
2018-08-23T01:46:42.951Z,17.80
2018-08-23T01:49:12.698Z,19.65
2018-08-23T01:51:42.848Z,19.80
2018-08-23T01:54:12.815Z,19.85
2018-08-23T01:56:42.523Z,18.67
2018-08-23T01:59:12.437Z,18.53
2018-08-23T02:01:42.272Z,18.67
2018-08-23T02:04:12.002Z,20.02
2018-08-23T02:06:41.798Z,23.67
2018-08-23T02:09:11.975Z,19.70
2018-08-23T02:11:41.962Z,20.07
2018-08-23T02:14:11.774Z,17.67
2018-08-23T02:16:53.206Z,18.87
2018-08-23T02:19:23.262Z,37.73
2018-08-23T02:21:53.443Z,30.60
2018-08-23T02:24:30.077Z,22.53
2018-08-23T02:26:59.901Z,20.90
2018-08-23T02:29:46.342Z,22.50
2018-08-23T02:32:16.218Z,23.67
2018-08-23T02:34:47.113Z,22.43
2018-08-23T02:37:17.746Z,20.70
2018-08-23T02:39:47.957Z,22.73
2018-08-23T02:42:19.161Z,21.33
2018-08-23T02:44:49.343Z,20.70
2018-08-23T02:47:19.172Z,19.07
2018-08-23T02:49:49.023Z,20.30
2018-08-23T02:52:18.942Z,19.37
2018-08-23T02:54:49.155Z,18.27
2018-08-23T02:57:19.081Z,17.13
2018-08-23T02:59:48.905Z,22.67
2018-08-23T03:02:18.897Z,29.97
2018-08-23T03:04:48.716Z,24.63
2018-08-23T03:07:22.217Z,20.67
2018-08-23T03:09:52.023Z,21.17
2018-08-23T03:12:21.744Z,21.43
2018-08-23T03:14:51.422Z,21.37
2018-08-23T03:17:24.973Z,19.77
2018-08-23T03:20:14.591Z,21.63
2018-08-23T03:22:45.763Z,20.47
2018-08-23T03:25:16.973Z,20.72
2018-08-23T03:27:46.866Z,22.33
2018-08-23T03:30:18.714Z,22.53
2018-08-23T03:32:48.386Z,22.23
2018-08-23T03:35:18.107Z,20.77
2018-08-23T03:37:48.870Z,19.40
2018-08-23T03:40:19.090Z,20.57
2018-08-23T03:42:48.785Z,21.57
2018-08-23T03:45:23.631Z,21.13
2018-08-23T03:47:54.464Z,19.32
2018-08-23T03:50:24.267Z,19.73
2018-08-23T03:52:55.750Z,21.13
2018-08-23T03:55:26.874Z,19.77
2018-08-23T03:58:01.703Z,9.40
2018-08-23T04:00:36.769Z,11.60
2018-08-23T04:03:13.448Z,11.13
2018-08-23T04:05:43.394Z,13.13
2018-08-23T04:08:13.911Z,12.55
2018-08-23T04:10:43.980Z,13.97
2018-08-23T04:13:13.932Z,13.27
2018-08-23T04:15:44.078Z,14.83
2018-08-23T04:18:16.273Z,14.67
2018-08-23T04:20:55.353Z,14.50
2018-08-23T04:23:25.137Z,14.13
2018-08-23T04:25:55.261Z,14.30
2018-08-23T04:28:25.141Z,14.50
2018-08-23T04:30:55.197Z,13.57
2018-08-23T04:33:25.009Z,14.83
2018-08-23T04:35:55.059Z,15.68
2018-08-23T04:38:25.053Z,15.37
2018-08-23T04:40:58.968Z,15.20
2018-08-23T04:43:28.966Z,14.93
2018-08-23T04:45:58.793Z,14.70
2018-08-23T04:48:28.576Z,15.57
2018-08-23T04:50:58.553Z,16.32
2018-08-23T04:53:28.512Z,16.87
2018-08-23T04:55:58.397Z,17.10
2018-08-23T04:58:28.138Z,17.43
2018-08-23T05:00:58.017Z,18.37
2018-08-23T05:03:28.036Z,19.43
2018-08-23T05:05:58.067Z,19.67
2018-08-23T05:08:27.789Z,19.00
2018-08-23T05:10:57.457Z,18.23
2018-08-23T05:13:27.503Z,19.60
2018-08-23T05:15:57.427Z,17.92
2018-08-23T05:18:27.275Z,20.20
2018-08-23T05:20:57.328Z,19.60
2018-08-23T05:23:27.088Z,21.17
2018-08-23T05:25:59.240Z,20.43
2018-08-23T05:28:29.067Z,21.67
2018-08-23T05:30:59.044Z,21.93
2018-08-23T05:33:28.968Z,20.90
2018-08-23T05:35:59.274Z,21.82
2018-08-23T05:38:29.397Z,23.65
2018-08-23T05:41:04.414Z,23.63
2018-08-23T05:43:34.188Z,23.73
2018-08-23T05:46:04.313Z,26.40
2018-08-23T05:48:34.313Z,23.83
2018-08-23T05:51:13.968Z,22.53
2018-08-23T05:53:49.374Z,24.37
2018-08-23T05:56:20.578Z,37.70
2018-08-23T05:58:50.499Z,36.40
2018-08-23T06:01:20.283Z,36.30
2018-08-23T06:03:50.380Z,38.63
2018-08-23T06:06:20.276Z,40.53
2018-08-23T06:08:54.457Z,39.50
2018-08-23T06:11:24.309Z,39.30
2018-08-23T06:13:54.166Z,38.48
2018-08-23T06:16:24.258Z,39.20
2018-08-23T06:18:54.532Z,40.47
2018-08-23T06:21:24.454Z,42.27
2018-08-23T06:23:55.902Z,42.47
2018-08-23T06:26:39.255Z,44.33
2018-08-23T06:29:10.739Z,40.67
2018-08-23T06:31:51.259Z,43.23
2018-08-23T06:34:21.100Z,41.20
2018-08-23T06:36:51.082Z,43.83
2018-08-23T06:39:20.873Z,43.93
2018-08-23T06:42:25.181Z,41.30
2018-08-23T06:44:56.042Z,44.30
2018-08-23T06:47:27.128Z,42.20
2018-08-23T06:49:56.988Z,46.17
2018-08-23T06:52:39.313Z,41.63
2018-08-23T06:55:14.047Z,40.75
2018-08-23T06:57:49.848Z,43.68
2018-08-23T07:00:25.589Z,45.27
2018-08-23T07:02:55.687Z,44.03
2018-08-23T07:05:25.552Z,43.23
2018-08-23T07:07:55.572Z,45.90
2018-08-23T07:10:25.368Z,44.03
2018-08-23T07:12:56.760Z,46.40
2018-08-23T07:15:26.917Z,47.88
2018-08-23T07:17:56.880Z,44.90
2018-08-23T07:20:26.703Z,48.77
2018-08-23T07:22:56.333Z,47.83
2018-08-23T07:25:26.402Z,45.30
2018-08-23T07:27:56.483Z,43.43
2018-08-23T07:30:26.353Z,43.15
2018-08-23T07:32:56.601Z,39.80
2018-08-23T07:35:26.257Z,41.57
2018-08-23T07:37:55.953Z,42.80
2018-08-23T07:40:25.852Z,41.57
2018-08-23T07:42:56.151Z,40.13
2018-08-23T07:45:25.778Z,38.73
2018-08-23T07:47:56.681Z,40.85
2018-08-23T07:50:27.087Z,37.03
2018-08-23T07:52:56.987Z,40.97
2018-08-23T07:55:26.642Z,41.80
2018-08-23T07:57:56.504Z,39.43
2018-08-23T08:00:30.784Z,35.60
2018-08-23T08:03:00.808Z,34.13
2018-08-23T08:05:32.304Z,34.37
2018-08-23T08:08:02.142Z,33.00
2018-08-23T08:10:38.754Z,31.60
2018-08-23T08:13:08.493Z,33.07
2018-08-23T08:15:38.811Z,29.80
2018-08-23T08:18:19.983Z,29.07
2018-08-23T08:20:56.549Z,26.65
2018-08-23T08:23:26.427Z,27.30
2018-08-23T08:25:56.235Z,26.27
2018-08-23T08:28:26.218Z,25.27
2018-08-23T08:30:59.537Z,28.63
2018-08-23T08:33:36.162Z,27.00
2018-08-23T08:36:06.682Z,25.97
2018-08-23T08:38:37.029Z,23.57
2018-08-23T08:41:07.013Z,21.53
2018-08-23T08:43:37.084Z,22.10
2018-08-23T08:46:07.098Z,22.33
2018-08-23T08:48:37.019Z,22.13
2018-08-23T08:51:16.761Z,19.37
2018-08-23T08:53:47.072Z,19.60
2018-08-23T08:56:22.103Z,18.48
2018-08-23T08:58:52.910Z,17.80
2018-08-23T09:01:22.849Z,17.97
2018-08-23T09:03:52.877Z,19.17
2018-08-23T09:06:24.244Z,17.17
2018-08-23T09:08:54.108Z,18.30
2018-08-23T09:14:01.854Z,18.70
2018-08-23T09:16:31.957Z,17.10
2018-08-23T09:19:04.312Z,18.20
2018-08-23T09:21:34.679Z,15.97
2018-08-23T09:24:28.682Z,18.17
2018-08-23T09:26:58.625Z,17.35
2018-08-23T09:29:38.638Z,14.33
2018-08-23T09:32:19.104Z,14.03
2018-08-23T09:34:49.295Z,11.70
2018-08-23T09:37:19.825Z,10.20
2018-08-23T09:45:25.623Z,13.10
2018-08-23T09:47:55.399Z,15.23
2018-08-23T09:50:25.803Z,13.20
2018-08-23T09:52:55.894Z,13.90
2018-08-23T09:55:34.077Z,15.07
2018-08-23T09:58:03.853Z,14.67
2018-08-23T10:00:38.901Z,12.47
2018-08-23T10:03:13.899Z,14.35
2018-08-23T10:05:48.963Z,15.00
2018-08-23T10:08:24.091Z,13.72
2018-08-23T10:10:59.062Z,13.60
2018-08-23T10:13:34.124Z,14.30
2018-08-23T10:16:09.666Z,13.43
2018-08-23T10:18:44.998Z,12.70
2018-08-23T10:21:17.033Z,11.13
2018-08-23T10:23:46.883Z,11.17
2018-08-23T10:26:30.888Z,12.30
2018-08-23T10:29:00.850Z,10.60
2018-08-23T10:31:30.792Z,10.70
2018-08-23T10:34:00.811Z,10.95
2018-08-23T10:36:30.879Z,10.67
2018-08-23T10:39:00.855Z,11.27
2018-08-23T10:41:30.865Z,11.90
2018-08-23T10:44:00.599Z,11.43
2018-08-23T10:46:34.670Z,11.30
2018-08-23T10:49:04.736Z,10.68
2018-08-23T10:51:34.732Z,12.78
2018-08-23T10:54:04.698Z,12.10
2018-08-23T10:56:34.698Z,10.50
2018-08-23T10:59:04.863Z,10.30
2018-08-23T11:01:34.664Z,12.70
2018-08-23T11:04:05.792Z,12.33
2018-08-23T11:06:37.547Z,9.90
2018-08-23T11:09:13.942Z,7.83
2018-08-23T11:11:43.615Z,9.15
2018-08-23T11:14:53.822Z,10.93
2018-08-23T11:17:29.088Z,13.35
2018-08-23T11:21:05.304Z,12.60
2018-08-23T11:23:35.344Z,9.27
2018-08-23T11:26:05.457Z,9.97
2018-08-23T11:28:35.554Z,10.27
2018-08-23T11:31:05.479Z,8.20
2018-08-23T11:33:35.632Z,9.18
2018-08-23T11:36:05.619Z,8.77
2018-08-23T11:38:35.533Z,8.75
2018-08-23T11:41:05.646Z,7.70
2018-08-23T11:43:35.609Z,8.18
2018-08-23T11:46:10.837Z,7.53
2018-08-23T11:48:41.261Z,7.20
2018-08-23T11:51:11.544Z,8.18
2018-08-23T11:53:41.746Z,7.37
2018-08-23T11:56:11.678Z,7.33
2018-08-23T11:58:42.202Z,6.97
2018-08-23T12:01:13.290Z,8.60
2018-08-23T12:03:43.720Z,7.37
2018-08-23T12:06:14.660Z,6.47
2018-08-23T12:08:44.706Z,6.13
2018-08-23T12:11:14.614Z,4.78
2018-08-23T12:13:49.573Z,6.45
2018-08-23T12:16:19.734Z,6.77
2018-08-23T12:18:50.083Z,5.75
2018-08-23T12:21:20.054Z,4.83
2018-08-23T12:23:50.034Z,5.60
2018-08-23T12:26:19.792Z,5.53
2018-08-23T12:28:54.684Z,5.67
2018-08-23T12:31:24.698Z,5.10
2018-08-23T12:33:54.764Z,5.90
2018-08-23T12:36:29.645Z,4.90
2018-08-23T12:39:04.662Z,4.90
2018-08-23T12:41:39.603Z,4.72
2018-08-23T12:44:09.577Z,4.87
2018-08-23T12:46:39.496Z,5.10
2018-08-23T12:49:09.430Z,4.33
2018-08-23T12:51:39.323Z,4.97
2018-08-23T12:54:09.297Z,4.50
2018-08-23T12:56:39.179Z,4.60
2018-08-23T12:59:09.019Z,4.47
2018-08-23T13:01:38.887Z,4.47
2018-08-23T13:04:08.955Z,5.10
2018-08-23T13:06:38.920Z,5.20
2018-08-23T13:09:08.682Z,4.37
2018-08-23T13:11:39.047Z,4.27
2018-08-23T13:14:09.903Z,4.28
2018-08-23T13:16:39.774Z,4.00
2018-08-23T13:19:09.763Z,3.10
2018-08-23T13:21:39.844Z,3.90
2018-08-23T13:24:09.748Z,3.30
2018-08-23T13:26:45.438Z,3.97
2018-08-23T13:29:15.595Z,3.10
2018-08-23T13:31:45.683Z,3.07
2018-08-23T13:34:15.789Z,3.57
2018-08-23T13:36:45.827Z,3.60
2018-08-23T13:39:15.944Z,3.70
2018-08-23T13:41:45.654Z,4.57
2018-08-23T13:44:15.467Z,3.77
2018-08-23T13:46:45.438Z,3.80
2018-08-23T13:49:15.453Z,3.50
2018-08-23T13:51:45.412Z,5.08
2018-08-23T13:54:15.498Z,4.90
2018-08-23T13:56:45.489Z,4.78
2018-08-23T13:59:15.352Z,5.93
2018-08-23T14:01:45.050Z,5.00
2018-08-23T14:04:14.938Z,5.50
2018-08-23T14:06:44.829Z,4.60
2018-08-23T14:09:14.757Z,4.60
2018-08-23T14:11:44.625Z,4.70
2018-08-23T14:14:14.558Z,5.00
2018-08-23T14:16:44.858Z,5.33
2018-08-23T14:19:14.937Z,4.30
2018-08-23T14:21:45.025Z,4.70
2018-08-23T14:24:14.931Z,4.53
2018-08-23T14:26:45.056Z,4.42
2018-08-23T14:29:16.066Z,4.30
2018-08-23T14:36:38.794Z,3.57
2018-08-23T14:39:11.480Z,3.60
2018-08-23T14:41:41.628Z,4.53
2018-08-23T14:44:12.187Z,4.63
2018-08-23T14:46:47.412Z,4.53
2018-08-23T14:49:35.722Z,4.60
2018-08-23T14:52:06.807Z,5.20
2018-08-23T14:54:43.789Z,4.25
2018-08-23T14:57:19.090Z,5.00
2018-08-23T14:59:48.910Z,5.30
2018-08-23T15:02:18.882Z,5.40
2018-08-23T15:04:49.530Z,4.13
2018-08-23T15:07:19.564Z,3.85
2018-08-23T15:09:49.565Z,4.17
2018-08-23T15:12:19.466Z,5.10
2018-08-23T15:14:49.329Z,4.70
2018-08-23T15:17:19.233Z,4.20
2018-08-23T15:19:49.025Z,5.40
2018-08-23T15:22:19.246Z,5.30
2018-08-23T15:24:49.088Z,5.42
2018-08-23T15:27:19.123Z,4.93
2018-08-23T15:29:49.084Z,5.90
2018-08-23T15:32:19.519Z,4.97
2018-08-23T15:34:49.489Z,6.33
2018-08-23T15:37:19.484Z,7.30
2018-08-23T15:39:49.556Z,6.60
2018-08-23T15:42:20.592Z,6.63
2018-08-23T15:44:50.471Z,6.50
2018-08-23T15:47:20.264Z,6.77
2018-08-23T15:49:50.252Z,6.77
2018-08-23T15:52:20.210Z,6.30
2018-08-23T15:54:50.116Z,5.63
2018-08-23T15:57:19.982Z,6.70
2018-08-23T15:59:50.034Z,6.40
2018-08-23T16:02:20.151Z,7.57
2018-08-23T16:04:50.328Z,6.23
2018-08-23T16:07:20.416Z,9.67
2018-08-23T16:09:50.506Z,8.97
2018-08-23T16:12:20.421Z,7.37
2018-08-23T16:14:50.412Z,6.97
2018-08-23T16:17:25.573Z,6.67
2018-08-23T16:20:01.001Z,7.97
2018-08-23T16:22:31.149Z,7.53
2018-08-23T16:25:01.291Z,7.80
2018-08-23T16:27:31.353Z,7.57
2018-08-23T16:30:01.490Z,7.40
2018-08-23T16:32:35.422Z,8.20
2018-08-23T16:35:05.357Z,7.77
2018-08-23T16:37:35.963Z,7.00
2018-08-23T16:40:06.364Z,7.40
2018-08-23T16:42:36.458Z,5.93
2018-08-23T16:45:06.415Z,6.30
2018-08-23T16:47:36.372Z,6.87
2018-08-23T16:50:06.313Z,6.80
2018-08-23T16:52:36.650Z,6.43
2018-08-23T16:55:06.957Z,6.27
2018-08-23T16:57:37.005Z,6.17
2018-08-23T17:00:06.960Z,6.03
2018-08-23T17:02:37.059Z,5.43
2018-08-23T17:05:07.360Z,6.60
2018-08-23T17:07:37.294Z,6.13
2018-08-23T17:10:07.272Z,5.97
2018-08-23T17:12:37.353Z,7.00
2018-08-23T17:15:11.850Z,7.30
2018-08-23T17:17:45.244Z,6.53
2018-08-23T17:20:16.374Z,6.40
2018-08-23T17:22:46.349Z,6.85
2018-08-23T17:25:16.262Z,6.75
2018-08-23T17:27:46.323Z,6.50
2018-08-23T17:30:16.455Z,7.93
2018-08-23T17:32:46.633Z,6.45
2018-08-23T17:35:16.727Z,8.38
2018-08-23T17:37:46.558Z,7.93
2018-08-23T17:40:16.506Z,8.03
2018-08-23T17:42:46.417Z,9.20
2018-08-23T17:45:16.873Z,8.90
2018-08-23T17:47:48.077Z,9.15
2018-08-23T17:50:18.944Z,9.03
2018-08-23T17:52:49.345Z,9.43
2018-08-23T17:55:19.640Z,7.07
2018-08-23T17:57:49.660Z,10.57
2018-08-23T18:00:19.590Z,8.77
2018-08-23T18:02:49.615Z,9.17
2018-08-23T18:05:19.571Z,10.50
2018-08-23T18:07:49.431Z,11.90
2018-08-23T18:10:19.531Z,9.80
2018-08-23T18:12:49.290Z,10.53
2018-08-23T18:15:19.011Z,8.30
2018-08-23T18:17:48.989Z,8.60
2018-08-23T18:20:19.067Z,11.53
2018-08-23T18:22:49.171Z,9.93
2018-08-23T18:25:19.276Z,10.23
2018-08-23T18:27:49.414Z,10.60
2018-08-23T18:30:19.578Z,10.47
2018-08-23T18:32:49.578Z,8.43
2018-08-23T18:35:19.706Z,8.63
2018-08-23T18:37:49.928Z,9.05
2018-08-23T18:40:20.008Z,8.43
2018-08-23T18:42:50.095Z,8.85
2018-08-23T18:45:20.175Z,8.35
2018-08-23T18:47:50.043Z,7.70
2018-08-23T18:50:19.894Z,8.13
2018-08-23T18:52:50.024Z,7.10
2018-08-23T18:55:19.924Z,7.63
2018-08-23T18:57:51.183Z,7.60
2018-08-23T19:00:21.526Z,6.50
2018-08-23T19:02:51.466Z,6.60
2018-08-23T19:05:21.508Z,7.30
2018-08-23T19:07:51.728Z,6.40
2018-08-23T19:10:21.907Z,5.33
2018-08-23T19:12:52.243Z,6.27
2018-08-23T19:16:31.848Z,4.90
2018-08-23T19:19:02.028Z,5.37
2018-08-23T19:21:32.642Z,5.03
2018-08-23T19:24:03.412Z,6.42
2018-08-23T19:26:33.697Z,4.03
2018-08-23T19:29:03.919Z,5.57
2018-08-23T19:31:34.018Z,4.70
2018-08-23T19:34:04.368Z,5.90
2018-08-23T19:36:34.279Z,4.57
2018-08-23T19:39:05.797Z,4.40
2018-08-23T19:41:35.737Z,4.37
2018-08-23T19:44:05.998Z,4.27
2018-08-23T19:46:41.028Z,4.30
2018-08-23T19:49:16.133Z,4.15
2018-08-23T19:51:46.312Z,4.40
2018-08-23T19:54:17.506Z,4.10
2018-08-23T19:56:48.775Z,4.47
2018-08-23T19:59:20.145Z,4.23
2018-08-23T20:01:51.437Z,4.30
2018-08-23T20:04:22.138Z,4.43
2018-08-23T20:06:52.411Z,3.93
2018-08-23T20:09:22.315Z,5.10
2018-08-23T20:11:52.351Z,5.40
2018-08-23T20:14:22.340Z,5.00
2018-08-23T20:16:52.889Z,4.50
2018-08-23T20:19:23.098Z,5.10
2018-08-23T20:21:53.352Z,5.50
2018-08-23T20:24:23.520Z,5.87
2018-08-23T20:26:53.589Z,5.33
2018-08-23T20:29:24.124Z,5.97
2018-08-23T20:31:54.573Z,5.43
2018-08-23T20:34:25.339Z,5.40
2018-08-23T20:36:55.726Z,5.50
2018-08-23T20:39:26.502Z,5.80
2018-08-23T20:41:56.677Z,5.62
2018-08-23T20:44:27.167Z,5.28
2018-08-23T20:46:57.922Z,5.30
2018-08-23T20:49:28.007Z,5.87
2018-08-23T20:51:58.173Z,5.65
2018-08-23T20:54:28.310Z,5.10
2018-08-23T20:56:58.425Z,5.23
2018-08-23T20:59:28.417Z,5.30
2018-08-23T21:01:58.285Z,5.43
2018-08-23T21:04:28.405Z,5.17
2018-08-23T21:06:58.503Z,4.73
2018-08-23T21:09:28.574Z,5.30
2018-08-23T21:11:58.914Z,5.90
2018-08-23T21:14:28.872Z,5.57
2018-08-23T21:16:58.719Z,4.70
2018-08-23T21:19:28.746Z,5.23
2018-08-23T21:21:58.592Z,4.63
2018-08-23T21:24:28.698Z,4.60
2018-08-23T21:26:58.895Z,4.67
2018-08-23T21:29:28.994Z,4.33
2018-08-23T21:31:59.144Z,4.80
2018-08-23T21:34:29.217Z,4.90
2018-08-23T21:36:59.014Z,4.27
2018-08-23T21:39:29.009Z,3.87
2018-08-23T21:41:58.734Z,4.63
2018-08-23T21:44:28.683Z,4.53
2018-08-23T21:46:58.657Z,4.13
2018-08-23T21:49:28.940Z,4.08
2018-08-23T21:51:58.894Z,3.60
2018-08-23T21:54:28.915Z,3.60
2018-08-23T21:56:58.874Z,3.43
2018-08-23T21:59:28.697Z,3.30
2018-08-23T22:02:30.989Z,3.08
2018-08-23T22:05:00.998Z,3.27
2018-08-23T22:07:30.860Z,3.25
2018-08-23T22:10:00.769Z,3.10
2018-08-23T22:12:30.727Z,2.90
2018-08-23T22:15:00.543Z,3.10
2018-08-23T22:17:30.477Z,3.07
2018-08-23T22:20:01.381Z,2.93
2018-08-23T22:22:31.582Z,2.60
2018-08-23T22:25:01.703Z,2.80
2018-08-23T22:27:31.802Z,2.67
2018-08-23T22:30:01.774Z,2.70
2018-08-23T22:32:31.943Z,2.50
2018-08-23T22:35:01.814Z,2.70
2018-08-23T22:37:31.995Z,2.60
2018-08-23T22:40:01.894Z,2.60
2018-08-23T22:42:32.779Z,2.60
2018-08-23T22:45:02.937Z,2.77
2018-08-23T22:47:33.354Z,2.65
2018-08-23T22:50:03.444Z,2.40
2018-08-23T22:52:33.223Z,2.27
2018-08-23T22:55:03.303Z,2.45
2018-08-23T22:57:33.212Z,2.17
2018-08-23T23:00:03.903Z,2.37
2018-08-23T23:02:39.739Z,2.42
2018-08-23T23:05:10.728Z,2.20
2018-08-23T23:07:40.369Z,2.37
2018-08-23T23:10:10.375Z,2.20
2018-08-23T23:12:40.168Z,2.30
2018-08-23T23:15:15.634Z,2.20
2018-08-23T23:17:45.577Z,2.63
2018-08-23T23:20:15.706Z,2.17
2018-08-23T23:22:45.518Z,2.23
2018-08-23T23:25:15.343Z,2.20
2018-08-23T23:27:45.448Z,2.10
2018-08-23T23:30:15.372Z,2.17
2018-08-23T23:32:45.248Z,2.17
2018-08-23T23:35:15.157Z,2.00
2018-08-23T23:37:45.329Z,1.83
2018-08-23T23:40:15.183Z,1.77
2018-08-23T23:42:45.085Z,2.10
2018-08-23T23:45:15.071Z,1.87
2018-08-23T23:47:45.121Z,1.70
2018-08-23T23:50:15.089Z,2.33
2018-08-23T23:52:44.977Z,2.00
2018-08-23T23:55:14.878Z,2.35
2018-08-23T23:57:44.621Z,2.13
